createdAt,value
2019-02-17T00:03:42.086Z,94466.63
2019-02-17T00:06:10.707Z,94468.67
2019-02-17T00:08:39.302Z,94469.93
2019-02-17T00:11:07.478Z,94466.64
2019-02-17T00:13:36.012Z,94465.78
2019-02-17T00:16:04.648Z,94461.20
2019-02-17T00:18:32.892Z,94463.79
2019-02-17T00:21:01.101Z,94463.52
2019-02-17T00:23:29.094Z,94459.16
2019-02-17T00:25:57.317Z,94454.92
2019-02-17T00:28:25.972Z,94451.42
2019-02-17T00:31:15.108Z,94452.08
2019-02-17T00:33:43.480Z,94447.72
2019-02-17T00:36:11.404Z,94443.73
2019-02-17T00:38:40.035Z,94447.05
2019-02-17T00:41:08.318Z,94451.27
2019-02-17T00:43:36.174Z,94450.09
2019-02-17T00:46:04.510Z,94454.81
2019-02-17T00:48:32.879Z,94450.91
2019-02-17T00:51:01.369Z,94450.28
2019-02-17T00:53:29.341Z,94447.16
2019-02-17T00:55:56.874Z,94449.63
2019-02-17T00:58:24.769Z,94450.35
2019-02-17T01:00:52.957Z,94447.46
2019-02-17T01:03:21.246Z,94444.53
2019-02-17T01:05:49.827Z,94442.80
2019-02-17T01:08:18.117Z,94443.64
2019-02-17T01:10:46.389Z,94434.23
2019-02-17T01:13:14.186Z,94444.29
2019-02-17T01:15:42.972Z,94439.66
2019-02-17T01:18:10.851Z,94442.27
2019-02-17T01:20:38.821Z,94437.25
2019-02-17T01:23:07.088Z,94442.28
2019-02-17T01:25:35.007Z,94436.66
2019-02-17T01:28:03.655Z,94435.59
2019-02-17T01:30:32.047Z,94440.39
2019-02-17T01:33:00.645Z,94434.19
2019-02-17T01:35:28.790Z,94438.98
2019-02-17T01:37:58.343Z,94431.70
2019-02-17T01:40:27.259Z,94434.73
2019-02-17T01:42:55.199Z,94421.66
2019-02-17T01:45:23.887Z,94420.91
2019-02-17T01:47:52.067Z,94424.61
2019-02-17T01:50:20.742Z,94419.66
2019-02-17T01:52:49.044Z,94418.80
2019-02-17T01:55:17.228Z,94418.27
2019-02-17T01:57:45.821Z,94414.77
2019-02-17T02:00:13.929Z,94409.08
2019-02-17T02:02:42.308Z,94406.81
2019-02-17T02:05:10.576Z,94406.95
2019-02-17T02:07:39.048Z,94402.44
2019-02-17T02:10:07.544Z,94403.98
2019-02-17T02:12:36.111Z,94405.31
2019-02-17T02:15:44.835Z,94400.81
2019-02-17T02:18:13.098Z,94398.16
2019-02-17T02:20:41.374Z,94404.59
2019-02-17T02:23:09.553Z,94398.88
2019-02-17T02:25:37.737Z,94396.90
2019-02-17T02:28:05.912Z,94397.42
2019-02-17T02:30:33.824Z,94397.73
2019-02-17T02:33:02.478Z,94398.91
2019-02-17T02:35:31.124Z,94399.09
2019-02-17T02:37:59.460Z,94395.25
2019-02-17T02:40:27.429Z,94394.19
2019-02-17T02:42:56.100Z,94397.63
2019-02-17T02:45:24.791Z,94396.99
2019-02-17T02:47:52.981Z,94388.20
2019-02-17T02:50:21.373Z,94395.20
2019-02-17T02:52:49.918Z,94390.05
2019-02-17T02:55:18.583Z,94389.72
2019-02-17T02:57:47.082Z,94394.89
2019-02-17T03:00:15.309Z,94394.60
2019-02-17T03:02:43.494Z,94388.17
2019-02-17T03:05:11.895Z,94390.41
2019-02-17T03:07:40.183Z,94387.80
2019-02-17T03:10:08.361Z,94384.98
2019-02-17T03:12:35.879Z,94388.88
2019-02-17T03:15:44.213Z,94385.64
2019-02-17T03:18:12.759Z,94388.75
2019-02-17T03:20:41.061Z,94386.33
2019-02-17T03:23:09.766Z,94384.96
2019-02-17T03:25:37.933Z,94378.53
2019-02-17T03:28:06.227Z,94382.38
2019-02-17T03:30:34.729Z,94383.13
2019-02-17T03:33:02.917Z,94379.34
2019-02-17T03:35:31.067Z,94377.95
2019-02-17T03:37:59.672Z,94375.41
2019-02-17T03:40:27.547Z,94377.92
2019-02-17T03:42:55.912Z,94382.86
2019-02-17T03:45:24.417Z,94386.13
2019-02-17T03:47:52.684Z,94377.78
2019-02-17T03:50:20.963Z,94379.50
2019-02-17T03:52:49.253Z,94373.23
2019-02-17T03:55:17.516Z,94369.93
2019-02-17T03:57:45.630Z,94371.33
2019-02-17T04:00:17.064Z,94374.95
2019-02-17T04:02:50.155Z,94370.27
2019-02-17T04:05:18.414Z,94376.75
2019-02-17T04:07:47.048Z,94371.43
2019-02-17T04:10:15.557Z,94368.10
2019-02-17T04:12:43.422Z,94376.59
2019-02-17T04:15:12.090Z,94377.72
2019-02-17T04:17:40.668Z,94373.19
2019-02-17T04:20:08.556Z,94374.59
2019-02-17T04:22:36.412Z,94370.81
2019-02-17T04:25:05.109Z,94371.70
2019-02-17T04:27:33.287Z,94371.95
2019-02-17T04:30:01.476Z,94372.74
2019-02-17T04:32:29.677Z,94366.31
2019-02-17T04:34:58.326Z,94368.59
2019-02-17T04:37:26.217Z,94369.66
2019-02-17T04:39:54.424Z,94372.42
2019-02-17T04:42:22.989Z,94377.59
2019-02-17T04:44:51.271Z,94371.67
2019-02-17T04:47:19.474Z,94373.94
2019-02-17T04:49:48.310Z,94377.76
2019-02-17T04:52:16.508Z,94379.02
2019-02-17T04:54:45.123Z,94374.02
2019-02-17T04:57:12.969Z,94372.85
2019-02-17T04:59:40.477Z,94372.41
2019-02-17T05:02:08.372Z,94373.75
2019-02-17T05:04:36.785Z,94372.28
2019-02-17T05:07:05.479Z,94371.48
2019-02-17T05:09:34.223Z,94376.01
2019-02-17T05:12:02.448Z,94380.45
2019-02-17T05:14:30.643Z,94371.23
2019-02-17T05:16:58.922Z,94377.27
2019-02-17T05:19:27.520Z,94369.91
2019-02-17T05:21:55.806Z,94370.18
2019-02-17T05:24:24.394Z,94374.49
2019-02-17T05:26:52.675Z,94372.77
2019-02-17T05:29:20.844Z,94373.38
2019-02-17T05:31:49.114Z,94376.05
2019-02-17T05:34:17.372Z,94368.22
2019-02-17T05:36:46.104Z,94375.67
2019-02-17T05:39:14.031Z,94371.20
2019-02-17T05:41:42.671Z,94369.70
2019-02-17T05:44:10.935Z,94367.25
2019-02-17T05:46:39.339Z,94371.50
2019-02-17T05:49:07.511Z,94370.98
2019-02-17T05:51:35.394Z,94370.56
2019-02-17T05:54:03.736Z,94372.91
2019-02-17T05:56:31.547Z,94372.17
2019-02-17T05:58:59.805Z,94375.27
2019-02-17T06:01:28.343Z,94372.20
2019-02-17T06:03:56.180Z,94374.77
2019-02-17T06:06:24.053Z,94380.41
2019-02-17T06:08:52.430Z,94378.44
2019-02-17T06:11:20.715Z,94379.97
2019-02-17T06:13:49.303Z,94385.15
2019-02-17T06:16:17.890Z,94386.90
2019-02-17T06:18:46.182Z,94388.03
2019-02-17T06:21:14.773Z,94384.41
2019-02-17T06:23:43.273Z,94388.00
2019-02-17T06:26:11.157Z,94391.20
2019-02-17T06:28:39.005Z,94389.26
2019-02-17T06:31:14.531Z,94390.88
2019-02-17T06:33:37.824Z,94391.03
2019-02-17T06:36:06.532Z,94396.44
2019-02-17T06:38:34.664Z,94389.57
2019-02-17T06:41:02.889Z,94393.57
2019-02-17T06:43:31.263Z,94395.88
2019-02-17T06:45:59.678Z,94395.64
2019-02-17T06:48:28.028Z,94401.20
2019-02-17T06:50:56.747Z,94400.83
2019-02-17T06:53:25.433Z,94401.34
2019-02-17T06:56:01.761Z,94402.54
2019-02-17T06:58:30.268Z,94402.78
2019-02-17T07:01:00.170Z,94402.48
2019-02-17T07:03:28.134Z,94404.02
2019-02-17T07:06:15.926Z,94397.07
2019-02-17T07:08:43.766Z,94404.44
2019-02-17T07:11:12.310Z,94399.47
2019-02-17T07:13:40.840Z,94401.35
2019-02-17T07:16:09.009Z,94398.86
2019-02-17T07:18:37.327Z,94399.34
2019-02-17T07:21:04.853Z,94395.66
2019-02-17T07:23:33.293Z,94401.38
2019-02-17T07:26:01.625Z,94402.23
2019-02-17T07:28:29.855Z,94407.41
2019-02-17T07:30:58.179Z,94407.96
2019-02-17T07:33:26.870Z,94407.29
2019-02-17T07:35:54.455Z,94401.92
2019-02-17T07:38:22.724Z,94402.19
2019-02-17T07:40:51.322Z,94404.17
2019-02-17T07:43:19.503Z,94404.27
2019-02-17T07:45:48.128Z,94401.77
2019-02-17T07:48:16.379Z,94401.05
2019-02-17T07:50:44.234Z,94399.55
2019-02-17T07:53:12.506Z,94396.61
2019-02-17T07:55:41.206Z,94402.80
2019-02-17T07:58:09.494Z,94400.01
2019-02-17T08:00:37.669Z,94397.42
2019-02-17T08:03:06.377Z,94398.02
2019-02-17T08:05:34.639Z,94398.75
2019-02-17T08:08:03.032Z,94394.27
2019-02-17T08:10:31.309Z,94394.53
2019-02-17T08:13:00.249Z,94391.33
2019-02-17T08:15:28.593Z,94390.31
2019-02-17T08:17:56.872Z,94394.00
2019-02-17T08:20:25.502Z,94393.33
2019-02-17T08:22:54.155Z,94390.25
2019-02-17T08:25:22.754Z,94390.92
2019-02-17T08:27:50.571Z,94391.54
2019-02-17T08:30:19.195Z,94382.94
2019-02-17T08:32:47.495Z,94383.78
2019-02-17T08:35:15.761Z,94381.91
2019-02-17T08:37:43.753Z,94378.97
2019-02-17T08:40:11.983Z,94379.81
2019-02-17T08:42:39.916Z,94378.39
2019-02-17T08:45:08.392Z,94370.88
2019-02-17T08:47:36.987Z,94380.12
2019-02-17T08:50:05.908Z,94375.60
2019-02-17T08:52:34.450Z,94369.03
2019-02-17T08:55:02.655Z,94371.28
2019-02-17T08:57:31.217Z,94373.55
2019-02-17T08:59:59.201Z,94373.31
2019-02-17T09:02:27.269Z,94373.58
2019-02-17T09:04:55.992Z,94367.88
2019-02-17T09:07:23.449Z,94364.70
2019-02-17T09:09:51.863Z,94374.95
2019-02-17T09:12:19.791Z,94369.20
2019-02-17T09:14:48.012Z,94366.48
2019-02-17T09:17:16.610Z,94360.25
2019-02-17T09:19:43.828Z,94359.14
2019-02-17T09:22:11.712Z,94357.19
2019-02-17T09:24:40.386Z,94362.90
2019-02-17T09:27:08.375Z,94358.41
2019-02-17T09:29:36.711Z,94357.68
2019-02-17T09:32:15.694Z,94353.18
2019-02-17T09:34:42.481Z,94344.43
2019-02-17T09:37:10.731Z,94343.19
2019-02-17T09:39:38.979Z,94338.50
2019-02-17T09:42:07.680Z,94334.97
2019-02-17T09:44:36.353Z,94335.96
2019-02-17T09:47:04.743Z,94332.52
2019-02-17T09:49:33.078Z,94335.23
2019-02-17T09:52:01.608Z,94333.16
2019-02-17T09:54:30.231Z,94331.28
2019-02-17T09:56:58.459Z,94338.23
2019-02-17T09:59:26.981Z,94328.42
2019-02-17T10:01:55.385Z,94332.68
2019-02-17T10:04:24.222Z,94330.77
2019-02-17T10:06:52.780Z,94330.24
2019-02-17T10:09:21.512Z,94323.83
2019-02-17T10:11:50.599Z,94322.27
2019-02-17T10:14:27.204Z,94322.39
2019-02-17T10:16:55.120Z,94320.93
2019-02-17T10:19:23.452Z,94322.75
2019-02-17T10:21:52.097Z,94315.23
2019-02-17T10:24:20.795Z,94313.41
2019-02-17T10:26:48.989Z,94318.27
2019-02-17T10:29:17.599Z,94310.28
2019-02-17T10:31:45.931Z,94313.31
2019-02-17T10:34:14.175Z,94320.48
2019-02-17T10:36:42.221Z,94311.34
2019-02-17T10:39:10.603Z,94304.10
2019-02-17T10:41:57.574Z,94307.26
2019-02-17T10:44:28.404Z,94306.23
2019-02-17T10:46:56.683Z,94306.23
2019-02-17T10:49:25.063Z,94307.06
2019-02-17T10:51:54.470Z,94311.87
2019-02-17T10:54:34.943Z,94303.96
2019-02-17T10:57:03.565Z,94303.96
2019-02-17T10:59:31.871Z,94299.92
2019-02-17T11:02:00.656Z,94307.28
2019-02-17T11:04:29.330Z,94304.73
2019-02-17T11:07:09.089Z,94292.37
2019-02-17T11:09:49.157Z,94292.37
2019-02-17T11:12:17.394Z,94291.77
2019-02-17T11:14:45.934Z,94288.55
2019-02-17T11:17:14.354Z,94280.38
2019-02-17T11:19:42.619Z,94276.10
2019-02-17T11:22:10.961Z,94278.53
2019-02-17T11:24:39.530Z,94272.69
2019-02-17T11:27:07.883Z,94271.27
2019-02-17T11:29:35.850Z,94270.47
2019-02-17T11:32:04.063Z,94267.52
2019-02-17T11:34:32.406Z,94259.95
2019-02-17T11:37:00.016Z,94257.23
2019-02-17T11:39:28.059Z,94260.91
2019-02-17T11:41:55.618Z,94257.13
2019-02-17T11:44:23.911Z,94252.79
2019-02-17T11:46:51.938Z,94252.01
2019-02-17T11:49:20.715Z,94244.72
2019-02-17T11:51:49.418Z,94250.09
2019-02-17T11:54:17.918Z,94247.97
2019-02-17T11:56:46.524Z,94245.76
2019-02-17T11:59:15.204Z,94244.39
2019-02-17T12:01:43.852Z,94241.00
2019-02-17T12:04:12.453Z,94231.20
2019-02-17T12:06:41.074Z,94230.92
2019-02-17T12:12:05.538Z,94224.41
2019-02-17T12:14:34.586Z,94233.44
2019-02-17T12:17:03.226Z,94224.84
2019-02-17T12:19:31.095Z,94223.27
2019-02-17T12:22:18.122Z,94218.99
2019-02-17T12:24:51.058Z,94214.33
2019-02-17T12:27:38.549Z,94203.63
2019-02-17T12:30:25.745Z,94205.39
2019-02-17T12:32:53.950Z,94210.69
2019-02-17T12:35:21.787Z,94207.91
2019-02-17T12:37:50.144Z,94203.10
2019-02-17T12:40:19.164Z,94205.25
2019-02-17T12:42:47.504Z,94204.23
2019-02-17T12:45:18.231Z,94193.16
2019-02-17T12:47:58.220Z,94194.02
2019-02-17T12:50:30.231Z,94186.02
2019-02-17T12:52:58.151Z,94186.70
2019-02-17T12:55:27.071Z,94177.92
2019-02-17T12:57:55.599Z,94178.79
2019-02-17T13:00:23.215Z,94177.66
2019-02-17T13:02:51.514Z,94173.09
2019-02-17T13:05:19.813Z,94169.33
2019-02-17T13:07:48.214Z,94167.11
2019-02-17T13:10:16.573Z,94165.89
2019-02-17T13:12:44.942Z,94163.20
2019-02-17T13:15:13.962Z,94161.23
2019-02-17T13:17:42.794Z,94153.20
2019-02-17T13:20:11.841Z,94155.28
2019-02-17T13:22:39.850Z,94156.21
2019-02-17T13:25:09.363Z,94152.37
2019-02-17T13:27:38.053Z,94152.88
2019-02-17T13:30:09.698Z,94149.64
2019-02-17T13:32:38.290Z,94151.69
2019-02-17T13:35:07.019Z,94145.27
2019-02-17T13:37:35.555Z,94142.66
2019-02-17T13:40:03.842Z,94146.98
2019-02-17T13:42:32.444Z,94137.73
2019-02-17T13:45:00.101Z,94132.45
2019-02-17T13:47:28.960Z,94132.95
2019-02-17T13:49:57.756Z,94136.82
2019-02-17T13:52:25.834Z,94134.80
2019-02-17T13:54:53.859Z,94133.41
2019-02-17T13:57:21.754Z,94125.09
2019-02-17T13:59:50.135Z,94121.18
2019-02-17T14:02:18.065Z,94125.47
2019-02-17T14:04:46.454Z,94127.14
2019-02-17T14:07:14.792Z,94128.88
2019-02-17T14:09:43.689Z,94123.59
2019-02-17T14:12:11.919Z,94127.29
2019-02-17T14:14:40.510Z,94129.45
2019-02-17T14:17:09.191Z,94122.86
2019-02-17T14:19:37.492Z,94116.91
2019-02-17T14:22:05.862Z,94118.91
2019-02-17T14:24:34.187Z,94118.55
2019-02-17T14:27:02.051Z,94117.86
2019-02-17T14:29:29.579Z,94114.92
2019-02-17T14:31:58.321Z,94112.70
2019-02-17T14:34:27.039Z,94115.04
2019-02-17T14:36:55.348Z,94111.34
2019-02-17T14:42:11.396Z,94105.37
2019-02-17T14:44:39.679Z,94110.37
2019-02-17T14:47:08.181Z,94109.98
2019-02-17T14:49:37.605Z,94110.67
2019-02-17T14:52:05.918Z,94108.77
2019-02-17T14:54:34.652Z,94107.80
2019-02-17T14:57:03.456Z,94098.20
2019-02-17T14:59:32.137Z,94099.88
2019-02-17T15:02:00.945Z,94098.36
2019-02-17T15:04:29.834Z,94098.09
2019-02-17T15:06:58.216Z,94101.25
2019-02-17T15:09:25.858Z,94095.20
2019-02-17T15:11:55.020Z,94094.72
2019-02-17T15:14:22.910Z,94091.59
2019-02-17T15:16:51.548Z,94086.88
2019-02-17T15:19:19.785Z,94084.70
2019-02-17T15:21:48.218Z,94084.84
2019-02-17T15:24:16.895Z,94083.73
2019-02-17T15:26:45.599Z,94082.88
2019-02-17T15:29:13.896Z,94082.70
2019-02-17T15:31:42.171Z,94083.18
2019-02-17T15:34:18.495Z,94080.73
2019-02-17T15:36:50.506Z,94079.09
2019-02-17T15:39:18.989Z,94082.25
2019-02-17T15:41:47.387Z,94084.91
2019-02-17T15:44:15.440Z,94080.84
2019-02-17T15:46:44.180Z,94074.72
2019-02-17T15:49:12.831Z,94083.95
2019-02-17T15:51:41.371Z,94078.27
2019-02-17T15:54:10.302Z,94083.12
2019-02-17T15:56:38.702Z,94078.42
2019-02-17T15:59:07.606Z,94073.08
2019-02-17T16:01:36.265Z,94069.45
2019-02-17T16:04:06.664Z,94073.23
2019-02-17T16:06:34.642Z,94080.02
2019-02-17T16:11:43.951Z,94092.13
2019-02-17T16:14:11.990Z,94089.55
2019-02-17T16:16:39.950Z,94091.88
2019-02-17T16:19:08.731Z,94092.69
2019-02-17T16:21:36.647Z,94093.20
2019-02-17T16:24:04.935Z,94092.03
2019-02-17T16:26:35.188Z,94099.78
2019-02-17T16:29:11.499Z,94097.23
2019-02-17T16:31:40.249Z,94096.51
2019-02-17T16:34:08.892Z,94102.34
2019-02-17T16:36:37.726Z,94095.73
2019-02-17T16:42:08.459Z,94099.25
2019-02-17T16:44:36.872Z,94103.50
2019-02-17T16:47:05.321Z,94107.17
2019-02-17T16:49:33.674Z,94105.77
2019-02-17T16:52:01.575Z,94112.34
2019-02-17T16:54:29.985Z,94112.55
2019-02-17T16:56:58.431Z,94108.48
2019-02-17T16:59:26.678Z,94118.84
2019-02-17T17:01:55.146Z,94115.59
2019-02-17T17:04:23.907Z,94117.02
2019-02-17T17:06:52.625Z,94119.66
2019-02-17T17:09:21.100Z,94125.27
2019-02-17T17:11:49.466Z,94122.83
2019-02-17T17:14:17.831Z,94127.56
2019-02-17T17:16:46.751Z,94123.39
2019-02-17T17:19:15.417Z,94117.50
2019-02-17T17:21:43.848Z,94129.41
2019-02-17T17:24:12.220Z,94128.59
2019-02-17T17:26:41.014Z,94131.63
2019-02-17T17:29:09.034Z,94136.73
2019-02-17T17:31:37.879Z,94137.62
2019-02-17T17:34:05.854Z,94133.00
2019-02-17T17:36:34.645Z,94146.13
2019-02-17T17:42:12.150Z,94144.48
2019-02-17T17:44:40.923Z,94145.34
2019-02-17T17:47:11.344Z,94147.08
2019-02-17T17:49:39.874Z,94146.22
2019-02-17T17:52:09.395Z,94145.81
2019-02-17T17:54:38.057Z,94147.52
2019-02-17T17:57:06.438Z,94149.22
2019-02-17T17:59:34.834Z,94151.76
2019-02-17T18:02:03.533Z,94153.90
2019-02-17T18:04:31.916Z,94152.63
2019-02-17T18:06:59.912Z,94152.19
2019-02-17T18:09:28.396Z,94151.77
2019-02-17T18:11:56.750Z,94153.03
2019-02-17T18:14:25.106Z,94154.70
2019-02-17T18:16:53.330Z,94159.34
2019-02-17T18:19:21.891Z,94168.19
2019-02-17T18:21:50.199Z,94163.95
2019-02-17T18:24:18.582Z,94168.61
2019-02-17T18:26:47.331Z,94166.47
2019-02-17T18:29:16.187Z,94164.37
2019-02-17T18:31:45.051Z,94169.42
2019-02-17T18:34:13.682Z,94168.97
2019-02-17T18:36:42.125Z,94170.64
2019-02-17T18:41:50.850Z,94165.14
2019-02-17T18:44:19.592Z,94168.06
2019-02-17T18:46:47.875Z,94157.54
2019-02-17T18:49:16.227Z,94160.89
2019-02-17T18:51:44.577Z,94151.22
2019-02-17T18:54:12.597Z,94153.31
2019-02-17T18:56:40.875Z,94152.05
2019-02-17T18:59:10.843Z,94154.98
2019-02-17T19:01:38.772Z,94150.30
2019-02-17T19:04:07.571Z,94155.74
2019-02-17T19:06:35.827Z,94162.46
2019-02-17T19:09:04.347Z,94159.05
2019-02-17T19:11:33.205Z,94156.14
2019-02-17T19:14:01.970Z,94162.42
2019-02-17T19:16:31.048Z,94159.45
2019-02-17T19:19:00.019Z,94159.38
2019-02-17T19:21:28.753Z,94159.31
2019-02-17T19:23:56.974Z,94163.52
2019-02-17T19:26:26.008Z,94163.95
2019-02-17T19:28:54.967Z,94169.45
2019-02-17T19:31:23.373Z,94165.23
2019-02-17T19:33:52.199Z,94158.95
2019-02-17T19:36:20.551Z,94165.29
2019-02-17T19:38:49.303Z,94164.05
2019-02-17T19:41:16.960Z,94161.13
2019-02-17T19:43:45.186Z,94164.09
2019-02-17T19:46:13.491Z,94159.42
2019-02-17T19:48:42.401Z,94160.61
2019-02-17T19:51:11.146Z,94157.16
2019-02-17T19:53:39.541Z,94159.23
2019-02-17T19:56:07.745Z,94161.34
2019-02-17T19:58:35.803Z,94161.72
2019-02-17T20:01:04.596Z,94166.73
2019-02-17T20:03:51.781Z,94158.72
2019-02-17T20:06:22.452Z,94158.31
2019-02-17T20:08:51.195Z,94158.28
2019-02-17T20:11:18.871Z,94157.42
2019-02-17T20:13:47.129Z,94159.50
2019-02-17T20:16:15.618Z,94161.58
2019-02-17T20:18:44.577Z,94166.70
2019-02-17T20:21:12.615Z,94160.77
2019-02-17T20:23:41.012Z,94160.73
2019-02-17T20:26:09.532Z,94170.84
2019-02-17T20:28:43.303Z,94167.87
2019-02-17T20:31:08.543Z,94166.95
2019-02-17T20:33:36.534Z,94168.52
2019-02-17T20:36:04.943Z,94168.38
2019-02-17T20:38:33.304Z,94168.23
2019-02-17T20:41:01.575Z,94170.59
2019-02-17T20:43:30.255Z,94172.23
2019-02-17T20:45:58.528Z,94170.87
2019-02-17T20:48:26.418Z,94173.00
2019-02-17T20:50:54.808Z,94170.02
2019-02-17T20:53:23.075Z,94167.70
2019-02-17T20:55:51.346Z,94165.28
2019-02-17T20:58:19.807Z,94172.08
2019-02-17T21:00:47.996Z,94168.68
2019-02-17T21:03:16.292Z,94165.34
2019-02-17T21:08:26.797Z,94168.29
2019-02-17T21:11:06.784Z,94169.84
2019-02-17T21:13:35.136Z,94168.45
2019-02-17T21:18:59.891Z,94169.57
2019-02-17T21:21:27.491Z,94166.59
2019-02-17T21:23:55.676Z,94168.77
2019-02-17T21:26:26.473Z,94168.27
2019-02-17T21:29:03.221Z,94166.13
2019-02-17T21:31:31.610Z,94165.19
2019-02-17T21:33:59.859Z,94162.45
2019-02-17T21:36:28.133Z,94163.86
2019-02-17T21:38:58.783Z,94156.96
2019-02-17T21:41:33.698Z,94157.23
2019-02-17T21:44:01.986Z,94162.20
2019-02-17T21:46:30.164Z,94160.87
2019-02-17T21:48:58.598Z,94162.13
2019-02-17T21:51:26.826Z,94155.71
2019-02-17T21:53:55.554Z,94160.67
2019-02-17T21:56:23.895Z,94159.50
2019-02-17T21:58:52.503Z,94158.62
2019-02-17T22:01:20.886Z,94159.41
2019-02-17T22:03:49.505Z,94161.89
2019-02-17T22:06:18.225Z,94152.61
2019-02-17T22:08:46.537Z,94153.41
2019-02-17T22:11:14.830Z,94152.53
2019-02-17T22:13:42.802Z,94149.55
2019-02-17T22:16:11.532Z,94154.13
2019-02-17T22:18:39.362Z,94153.70
2019-02-17T22:21:08.196Z,94150.64
2019-02-17T22:23:36.753Z,94150.68
2019-02-17T22:26:05.342Z,94152.95
2019-02-17T22:28:33.636Z,94150.69
2019-02-17T22:31:02.301Z,94145.55
2019-02-17T22:33:30.570Z,94141.73
2019-02-17T22:35:58.466Z,94136.77
2019-02-17T22:38:26.867Z,94140.94
2019-02-17T22:40:55.106Z,94142.12
2019-02-17T22:43:22.748Z,94142.88
2019-02-17T22:45:51.848Z,94147.53
2019-02-17T22:48:20.076Z,94141.99
2019-02-17T22:50:48.357Z,94143.17
2019-02-17T22:53:16.733Z,94150.43
2019-02-17T22:55:45.451Z,94147.91
2019-02-17T22:58:13.501Z,94142.41
2019-02-17T23:01:00.942Z,94145.34
2019-02-17T23:03:29.657Z,94146.53
2019-02-17T23:05:58.048Z,94143.78
2019-02-17T23:08:26.595Z,94141.59
2019-02-17T23:10:54.396Z,94139.78
2019-02-17T23:13:22.332Z,94142.35
2019-02-17T23:15:50.971Z,94145.19
2019-02-17T23:18:19.211Z,94149.81
2019-02-17T23:20:47.396Z,94144.31
2019-02-17T23:23:15.675Z,94142.20
2019-02-17T23:25:43.943Z,94143.84
2019-02-17T23:28:11.995Z,94140.56
2019-02-17T23:30:40.730Z,94138.38
2019-02-17T23:33:08.592Z,94139.95
2019-02-17T23:35:36.917Z,94134.97
2019-02-17T23:38:05.676Z,94131.82
2019-02-17T23:40:34.361Z,94142.67
2019-02-17T23:43:02.542Z,94140.47
2019-02-17T23:45:30.825Z,94140.05
2019-02-17T23:47:58.745Z,94142.20
2019-02-17T23:50:27.527Z,94142.20
2019-02-17T23:52:56.292Z,94141.05
2019-02-17T23:55:24.462Z,94133.50
2019-02-17T23:57:52.778Z,94134.30
